Sechelt, Canada
Current Conditions -  °F | °C
As of 9:00 PM on Monday 20 Oct 2014 (Local Time) from CYCD Reporting Station
Rain Showers Rain Showers  
Wind Chill: 54°   Ceiling: 6000
Heat Index: 54°   Visibility: 20mi
Dew Point: 52°   Wind: 3mph
Humidity: 94%   Direction: 140°SE
Pressure: 29.71"   Gusts: NA
Location:  49.47°N, 123.77°W
Report Text: CYCD 210400Z 14003KT 120V240 20SM -SHRA FEW008 SCT035 BKN060 12/11 A2971 RMK SF2SC2SC3 TCU ASOCTD LAST OBS/NEXT 211300 UTCSLP059
Loading
Personal Weather Stations






























Interactive Weather Map
Tropical Storm Tracking
New forecast layout! Learn more

10-Day Weather Forecast

Advertisements
Track Severe Weather on mobile